createdAt,value
2018-05-18T00:01:48.208Z,11.60
2018-05-18T00:04:51.642Z,11.50
2018-05-18T00:07:56.598Z,11.50
2018-05-18T00:10:59.958Z,11.50
2018-05-18T00:14:03.296Z,11.50
2018-05-18T00:17:07.408Z,11.30
2018-05-18T00:20:10.729Z,11.30
2018-05-18T00:23:15.203Z,11.20
2018-05-18T00:26:18.527Z,11.20
2018-05-18T00:29:21.922Z,11.20
2018-05-18T00:32:25.295Z,11.20
2018-05-18T00:35:28.767Z,11.20
2018-05-18T00:38:32.083Z,11.10
2018-05-18T00:41:35.495Z,11.10
2018-05-18T00:44:38.841Z,11.10
2018-05-18T00:47:42.167Z,11.00
2018-05-18T00:50:45.492Z,11.00
2018-05-18T00:53:48.838Z,10.90
2018-05-18T00:56:52.155Z,10.90
2018-05-18T00:59:55.485Z,10.90
2018-05-18T01:02:58.782Z,10.90
2018-05-18T01:06:02.901Z,10.90
2018-05-18T01:09:07.018Z,11.00
2018-05-18T01:12:11.109Z,10.80
2018-05-18T01:15:14.513Z,10.80
2018-05-18T01:18:17.935Z,10.80
2018-05-18T01:21:22.805Z,10.80
2018-05-18T01:24:26.270Z,10.70
2018-05-18T01:27:29.617Z,10.70
2018-05-18T01:30:32.970Z,10.70
2018-05-18T01:33:38.029Z,10.60
2018-05-18T01:36:41.350Z,10.60
2018-05-18T01:39:44.756Z,10.60
2018-05-18T01:42:48.348Z,10.60
2018-05-18T01:45:51.980Z,10.60
2018-05-18T01:48:56.182Z,10.50
2018-05-18T01:51:59.591Z,10.40
2018-05-18T01:55:02.921Z,10.40
2018-05-18T01:58:06.256Z,10.40
2018-05-18T02:01:09.660Z,10.40
2018-05-18T02:04:13.021Z,10.40
2018-05-18T02:07:16.332Z,10.40
2018-05-18T02:10:19.650Z,10.30
2018-05-18T02:13:23.074Z,10.20
2018-05-18T02:16:26.446Z,10.20
2018-05-18T02:19:29.809Z,10.20
2018-05-18T02:22:33.147Z,10.10
2018-05-18T02:25:36.548Z,10.00
2018-05-18T02:28:39.889Z,10.00
2018-05-18T02:31:43.246Z,10.00
2018-05-18T02:34:47.464Z,9.90
2018-05-18T02:37:50.863Z,9.90
2018-05-18T02:40:54.242Z,9.90
2018-05-18T02:43:57.642Z,9.80
2018-05-18T02:47:01.050Z,9.80
2018-05-18T02:50:04.461Z,9.70
2018-05-18T02:53:07.863Z,9.70
2018-05-18T02:56:11.977Z,9.50
2018-05-18T02:59:16.075Z,9.50
2018-05-18T03:02:20.189Z,9.50
2018-05-18T03:05:23.579Z,9.50
2018-05-18T03:08:26.912Z,9.50
2018-05-18T03:11:31.094Z,9.40
2018-05-18T03:14:34.439Z,9.40
2018-05-18T03:17:37.765Z,9.30
2018-05-18T03:20:46.706Z,9.30
2018-05-18T03:23:50.100Z,9.20
2018-05-18T03:26:53.502Z,9.20
2018-05-18T03:29:56.920Z,9.10
2018-05-18T03:33:02.680Z,9.10
2018-05-18T03:36:06.769Z,9.10
2018-05-18T03:39:10.099Z,9.10
2018-05-18T03:42:14.387Z,9.20
2018-05-18T03:45:17.782Z,9.20
2018-05-18T03:48:21.183Z,9.30
2018-05-18T03:51:24.531Z,9.40
2018-05-18T03:54:27.937Z,9.50
2018-05-18T03:57:31.290Z,9.50
2018-05-18T04:00:35.490Z,9.40
2018-05-18T04:03:56.849Z,9.30
2018-05-18T04:07:18.704Z,9.20
2018-05-18T04:10:22.095Z,9.20
2018-05-18T04:13:26.525Z,9.20
2018-05-18T04:16:29.844Z,9.20
2018-05-18T04:19:33.261Z,9.30
2018-05-18T04:22:36.574Z,9.30
2018-05-18T04:25:40.669Z,9.30
2018-05-18T04:28:43.969Z,9.20
2018-05-18T04:31:47.343Z,9.30
2018-05-18T04:34:50.745Z,9.40
2018-05-18T04:37:54.155Z,9.40
2018-05-18T04:40:57.486Z,9.40
2018-05-18T04:44:01.570Z,9.60
2018-05-18T04:47:05.746Z,9.60
2018-05-18T04:50:09.090Z,9.80
2018-05-18T04:53:13.309Z,9.90
2018-05-18T04:56:17.448Z,9.90
2018-05-18T04:59:20.817Z,9.90
2018-05-18T05:02:24.176Z,10.00
2018-05-18T05:05:27.514Z,10.00
2018-05-18T05:08:31.600Z,10.10
2018-05-18T05:11:35.026Z,10.10
2018-05-18T05:14:39.104Z,10.20
2018-05-18T05:17:42.506Z,10.20
2018-05-18T05:20:45.863Z,10.30
2018-05-18T05:23:49.249Z,10.40
2018-05-18T05:26:52.536Z,10.50
2018-05-18T05:29:56.601Z,10.80
2018-05-18T05:32:59.951Z,10.80
2018-05-18T05:36:04.071Z,11.00
2018-05-18T05:39:07.410Z,11.00
2018-05-18T05:42:10.749Z,11.10
2018-05-18T05:45:14.850Z,11.20
2018-05-18T05:48:18.149Z,11.20
2018-05-18T05:51:22.357Z,11.30
2018-05-18T05:54:25.700Z,11.30
2018-05-18T05:57:29.043Z,11.40
2018-05-18T06:00:32.393Z,11.60
2018-05-18T06:03:35.742Z,11.70
2018-05-18T06:06:39.093Z,11.80
2018-05-18T06:09:42.427Z,11.90
2018-05-18T06:12:45.749Z,12.00
2018-05-18T06:15:49.849Z,12.10
2018-05-18T06:18:53.240Z,12.10
2018-05-18T06:21:56.535Z,12.10
2018-05-18T06:25:00.694Z,12.40
2018-05-18T06:28:04.035Z,12.40
2018-05-18T06:31:07.394Z,12.50
2018-05-18T06:34:10.695Z,12.70
2018-05-18T06:37:14.077Z,12.80
2018-05-18T06:40:17.434Z,12.90
2018-05-18T06:43:20.748Z,13.10
2018-05-18T06:46:24.850Z,13.30
2018-05-18T06:49:28.181Z,13.30
2018-05-18T06:52:31.526Z,13.40
2018-05-18T06:55:34.880Z,13.50
2018-05-18T06:58:38.252Z,13.70
2018-05-18T07:01:41.577Z,13.90
2018-05-18T07:04:44.893Z,14.10
2018-05-18T07:07:48.236Z,14.20
2018-05-18T07:10:53.074Z,14.30
2018-05-18T07:13:56.378Z,14.20
2018-05-18T07:16:59.694Z,14.30
2018-05-18T07:20:03.062Z,14.40
2018-05-18T07:23:07.329Z,14.70
2018-05-18T07:26:11.373Z,14.60
2018-05-18T07:29:14.703Z,14.60
2018-05-18T07:32:18.051Z,14.80
2018-05-18T07:35:21.393Z,15.00
2018-05-18T07:38:24.717Z,15.10
2018-05-18T07:41:28.038Z,15.20
2018-05-18T07:44:31.363Z,15.20
2018-05-18T07:47:35.484Z,15.20
2018-05-18T07:50:39.582Z,15.20
2018-05-18T07:53:42.961Z,15.20
2018-05-18T07:56:46.296Z,15.30
2018-05-18T07:59:50.477Z,15.60
2018-05-18T08:02:53.878Z,15.60
2018-05-18T08:05:57.224Z,15.60
2018-05-18T08:09:00.597Z,15.70
2018-05-18T08:12:04.774Z,15.90
2018-05-18T08:15:08.206Z,15.90
2018-05-18T08:18:11.605Z,16.00
2018-05-18T08:21:15.713Z,16.40
2018-05-18T08:24:19.068Z,16.40
2018-05-18T08:27:24.295Z,16.50
2018-05-18T08:30:27.636Z,16.40
2018-05-18T08:33:30.956Z,16.50
2018-05-18T08:36:35.060Z,16.30
2018-05-18T08:39:39.240Z,16.40
2018-05-18T08:42:42.617Z,16.40
2018-05-18T08:45:45.930Z,16.50
2018-05-18T08:48:49.294Z,16.60
2018-05-18T08:51:52.695Z,16.70
2018-05-18T08:54:56.050Z,16.90
2018-05-18T08:57:59.347Z,16.90
2018-05-18T09:01:03.486Z,17.00
2018-05-18T09:04:07.685Z,17.00
2018-05-18T09:07:11.790Z,17.10
2018-05-18T09:10:15.175Z,17.00
2018-05-18T09:13:18.591Z,17.00
2018-05-18T09:16:21.938Z,17.10
2018-05-18T09:19:25.363Z,17.20
2018-05-18T09:22:28.762Z,17.40
2018-05-18T09:25:32.171Z,17.40
2018-05-18T09:28:35.490Z,17.50
2018-05-18T09:31:40.001Z,17.80
2018-05-18T09:34:43.333Z,17.80
2018-05-18T09:37:46.694Z,17.90
2018-05-18T09:40:50.808Z,18.00
2018-05-18T09:43:54.135Z,17.90
2018-05-18T09:46:57.500Z,18.10
2018-05-18T09:50:01.613Z,18.10
2018-05-18T09:53:04.959Z,18.10
2018-05-18T09:56:08.309Z,18.00
2018-05-18T09:59:11.685Z,18.00
2018-05-18T10:02:15.046Z,18.00
2018-05-18T10:05:18.365Z,18.10
2018-05-18T10:08:21.706Z,18.10
2018-05-18T10:11:25.889Z,18.00
2018-05-18T10:14:29.216Z,17.90
2018-05-18T10:17:33.333Z,18.10
2018-05-18T10:20:37.457Z,18.20
2018-05-18T10:23:40.826Z,18.10
2018-05-18T10:26:44.227Z,18.20
2018-05-18T10:29:48.689Z,18.30
2018-05-18T10:32:52.152Z,18.30
2018-05-18T10:35:55.520Z,18.40
2018-05-18T10:38:58.936Z,18.30
2018-05-18T10:42:02.280Z,18.50
2018-05-18T10:45:05.620Z,18.50
2018-05-18T10:48:08.973Z,18.30
2018-05-18T10:51:12.419Z,18.30
2018-05-18T10:54:15.733Z,18.50
2018-05-18T10:57:19.071Z,18.50
2018-05-18T11:00:22.389Z,18.40
2018-05-18T11:03:25.734Z,18.60
2018-05-18T11:06:29.850Z,18.60
2018-05-18T11:09:33.928Z,18.60
2018-05-18T11:12:37.281Z,18.60
2018-05-18T11:15:40.622Z,18.80
2018-05-18T11:18:44.036Z,18.90
2018-05-18T11:21:48.848Z,19.00
2018-05-18T11:24:52.188Z,18.90
2018-05-18T11:27:55.532Z,19.10
2018-05-18T11:30:58.894Z,19.20
2018-05-18T11:34:02.219Z,19.10
2018-05-18T11:37:05.552Z,18.90
2018-05-18T11:40:09.640Z,18.80
2018-05-18T11:43:12.942Z,18.80
2018-05-18T11:46:17.091Z,18.90
2018-05-18T11:49:21.169Z,19.00
2018-05-18T11:52:24.516Z,19.00
2018-05-18T11:55:27.873Z,19.10
2018-05-18T11:58:31.221Z,19.20
2018-05-18T12:01:34.580Z,19.20
2018-05-18T12:04:38.675Z,19.20
2018-05-18T12:07:41.998Z,19.20
2018-05-18T12:10:45.482Z,18.90
2018-05-18T12:13:48.865Z,18.70
2018-05-18T12:16:52.212Z,18.50
2018-05-18T12:19:55.545Z,18.50
2018-05-18T12:22:59.525Z,18.50
2018-05-18T12:26:02.917Z,18.70
2018-05-18T12:29:06.234Z,19.10
2018-05-18T12:32:09.661Z,19.10
2018-05-18T12:35:13.060Z,19.20
2018-05-18T12:38:16.487Z,19.10
2018-05-18T12:41:19.838Z,19.20
2018-05-18T12:44:23.262Z,19.30
2018-05-18T12:47:26.622Z,19.30
2018-05-18T12:50:30.006Z,19.50
2018-05-18T12:53:33.443Z,19.50
2018-05-18T12:56:36.807Z,19.70
2018-05-18T12:59:40.151Z,19.80
2018-05-18T13:02:43.495Z,20.00
2018-05-18T13:05:46.816Z,19.70
2018-05-18T13:08:50.174Z,19.70
2018-05-18T13:11:53.630Z,19.60
2018-05-18T13:14:57.759Z,19.60
2018-05-18T13:18:01.892Z,19.60
2018-05-18T13:21:05.353Z,19.60
2018-05-18T13:24:08.703Z,19.20
2018-05-18T13:27:12.160Z,19.40
2018-05-18T13:30:15.550Z,19.50
2018-05-18T13:33:18.888Z,19.60
2018-05-18T13:36:22.348Z,19.80
2018-05-18T13:39:25.679Z,19.90
2018-05-18T13:42:29.043Z,19.70
2018-05-18T13:45:32.457Z,19.60
2018-05-18T13:48:36.566Z,19.20
2018-05-18T13:51:40.746Z,19.30
2018-05-18T13:54:44.971Z,19.30
2018-05-18T13:57:48.297Z,19.40
2018-05-18T14:00:51.663Z,19.40
2018-05-18T14:03:54.989Z,19.30
2018-05-18T14:06:59.110Z,19.10
2018-05-18T14:10:03.209Z,19.20
2018-05-18T14:13:07.386Z,19.30
2018-05-18T14:16:10.706Z,19.30
2018-05-18T14:19:14.115Z,19.40
2018-05-18T14:22:17.514Z,19.40
2018-05-18T14:25:20.911Z,19.30
2018-05-18T14:28:24.310Z,19.30
2018-05-18T14:31:27.667Z,19.40
2018-05-18T14:34:31.109Z,19.40
2018-05-18T14:37:34.530Z,19.50
2018-05-18T14:40:37.826Z,19.50
2018-05-18T14:43:41.218Z,19.60
2018-05-18T14:46:45.338Z,19.40
2018-05-18T14:49:48.703Z,19.40
2018-05-18T14:52:52.094Z,19.30
2018-05-18T14:55:55.389Z,19.30
2018-05-18T14:58:59.519Z,19.40
2018-05-18T15:02:03.715Z,19.60
2018-05-18T15:05:07.102Z,19.60
2018-05-18T15:08:10.462Z,20.00
2018-05-18T15:11:13.831Z,19.90
2018-05-18T15:14:17.179Z,19.80
2018-05-18T15:17:20.592Z,20.10
2018-05-18T15:20:23.912Z,20.20
2018-05-18T15:23:27.357Z,20.40
2018-05-18T15:26:30.719Z,20.60
2018-05-18T15:29:34.921Z,20.90
2018-05-18T15:32:38.265Z,20.80
2018-05-18T15:35:41.687Z,20.90
2018-05-18T15:38:45.023Z,20.80
2018-05-18T15:41:49.153Z,20.90
2018-05-18T15:44:52.485Z,20.90
2018-05-18T15:47:55.903Z,20.90
2018-05-18T15:50:59.253Z,20.90
2018-05-18T15:54:02.589Z,20.50
2018-05-18T15:57:05.942Z,20.50
2018-05-18T16:00:09.273Z,20.40
2018-05-18T16:03:12.695Z,20.60
2018-05-18T16:06:16.077Z,20.70
2018-05-18T16:09:19.483Z,20.70
2018-05-18T16:12:22.917Z,20.60
2018-05-18T16:15:27.093Z,20.70
2018-05-18T16:18:30.492Z,20.70
2018-05-18T16:21:33.896Z,20.50
2018-05-18T16:24:37.293Z,20.70
2018-05-18T16:27:40.671Z,20.80
2018-05-18T16:30:44.001Z,20.50
2018-05-18T16:33:47.339Z,20.60
2018-05-18T16:36:50.690Z,20.90
2018-05-18T16:39:54.788Z,20.90
2018-05-18T16:42:58.150Z,20.90
2018-05-18T16:46:01.467Z,21.00
2018-05-18T16:49:04.837Z,20.80
2018-05-18T16:52:08.286Z,20.60
2018-05-18T16:55:11.678Z,20.40
2018-05-18T16:58:14.996Z,20.30
2018-05-18T17:01:18.373Z,20.10
2018-05-18T17:04:21.725Z,19.80
2018-05-18T17:07:25.103Z,19.60
2018-05-18T17:10:28.434Z,19.60
2018-05-18T17:13:31.857Z,19.20
2018-05-18T17:16:35.189Z,18.80
2018-05-18T17:19:39.308Z,17.60
2018-05-18T17:22:42.669Z,17.60
2018-05-18T17:25:46.139Z,16.90
2018-05-18T17:28:49.441Z,16.50
2018-05-18T17:31:52.869Z,16.10
2018-05-18T17:34:56.255Z,15.90
2018-05-18T17:37:59.615Z,15.70
2018-05-18T17:41:03.075Z,15.60
2018-05-18T17:44:07.199Z,15.30
2018-05-18T17:47:11.328Z,15.10
2018-05-18T17:50:14.760Z,15.10
2018-05-18T17:53:18.196Z,14.90
2018-05-18T17:56:22.292Z,14.70
2018-05-18T17:59:25.721Z,14.70
2018-05-18T18:02:29.062Z,14.60
2018-05-18T18:05:32.375Z,14.50
2018-05-18T18:08:35.714Z,14.40
2018-05-18T18:11:39.796Z,14.20
2018-05-18T18:14:43.139Z,14.10
2018-05-18T18:17:46.597Z,14.10
2018-05-18T18:20:50.682Z,14.00
2018-05-18T18:23:54.127Z,14.00
2018-05-18T18:26:58.225Z,13.80
2018-05-18T18:30:01.638Z,13.80
2018-05-18T18:33:05.932Z,13.60
2018-05-18T18:36:09.325Z,13.60
2018-05-18T18:39:12.641Z,13.40
2018-05-18T18:42:16.751Z,13.20
2018-05-18T18:45:20.081Z,13.20
2018-05-18T18:48:24.285Z,13.10
2018-05-18T18:51:28.420Z,13.20
2018-05-18T18:54:31.749Z,13.10
2018-05-18T18:57:35.115Z,13.20
2018-05-18T19:00:38.470Z,13.20
2018-05-18T19:03:41.859Z,13.20
2018-05-18T19:06:45.191Z,13.20
2018-05-18T19:09:48.540Z,13.20
2018-05-18T19:12:51.892Z,13.10
2018-05-18T19:15:55.234Z,13.00
2018-05-18T19:18:58.588Z,13.00
2018-05-18T19:22:01.941Z,12.90
2018-05-18T19:25:05.333Z,12.80
2018-05-18T19:28:08.747Z,12.70
2018-05-18T19:31:13.012Z,12.60
2018-05-18T19:34:16.441Z,12.60
2018-05-18T19:37:19.842Z,12.60
2018-05-18T19:40:23.263Z,12.50
2018-05-18T19:43:26.644Z,12.50
2018-05-18T19:46:30.002Z,12.40
2018-05-18T19:49:33.378Z,12.40
2018-05-18T19:52:36.721Z,12.30
2018-05-18T19:55:40.078Z,12.10
2018-05-18T19:58:43.469Z,12.10
2018-05-18T20:01:47.574Z,12.10
2018-05-18T20:04:51.677Z,12.10
2018-05-18T20:07:54.982Z,12.10
2018-05-18T20:10:58.329Z,12.10
2018-05-18T20:14:01.684Z,12.10
2018-05-18T20:17:05.798Z,12.00
2018-05-18T20:20:09.918Z,11.80
2018-05-18T20:23:14.019Z,11.90
2018-05-18T20:26:17.362Z,11.80
2018-05-18T20:29:20.831Z,11.80
2018-05-18T20:32:25.745Z,11.70
2018-05-18T20:35:29.205Z,11.60
2018-05-18T20:38:32.593Z,11.60
2018-05-18T20:41:36.011Z,11.50
2018-05-18T20:44:39.328Z,11.50
2018-05-18T20:47:42.680Z,11.50
2018-05-18T20:50:46.941Z,11.50
2018-05-18T20:53:50.438Z,11.60
2018-05-18T20:56:53.762Z,11.60
2018-05-18T20:59:57.872Z,11.70
2018-05-18T21:03:02.001Z,11.70
2018-05-18T21:06:06.259Z,11.80
2018-05-18T21:09:09.637Z,11.80
2018-05-18T21:12:13.002Z,11.80
2018-05-18T21:15:16.354Z,11.70
2018-05-18T21:18:19.791Z,11.70
2018-05-18T21:21:23.182Z,11.80
2018-05-18T21:24:26.581Z,11.90
2018-05-18T21:27:29.985Z,11.90
2018-05-18T21:30:33.380Z,11.90
2018-05-18T21:33:36.687Z,12.00
2018-05-18T21:36:40.890Z,11.90
2018-05-18T21:39:44.883Z,11.90
2018-05-18T21:42:48.259Z,11.90
2018-05-18T21:45:51.695Z,11.90
2018-05-18T21:48:55.038Z,12.00
2018-05-18T21:51:58.403Z,12.00
2018-05-18T21:55:02.510Z,12.00
2018-05-18T21:58:06.626Z,12.00
2018-05-18T22:01:10.135Z,12.00
2018-05-18T22:04:14.291Z,11.90
2018-05-18T22:07:17.641Z,11.90
2018-05-18T22:10:20.955Z,11.80
2018-05-18T22:13:24.294Z,11.80
2018-05-18T22:16:27.672Z,11.80
2018-05-18T22:19:31.032Z,11.80
2018-05-18T22:22:35.243Z,11.80
2018-05-18T22:25:38.596Z,11.80
2018-05-18T22:28:42.048Z,11.90
2018-05-18T22:31:45.447Z,11.90
2018-05-18T22:34:50.101Z,11.80
2018-05-18T22:37:53.441Z,11.80
2018-05-18T22:40:56.809Z,11.80
2018-05-18T22:44:00.165Z,11.90
2018-05-18T22:47:04.250Z,11.90
2018-05-18T22:50:07.662Z,11.80
2018-05-18T22:53:11.852Z,11.80
2018-05-18T22:56:15.204Z,11.70
2018-05-18T22:59:19.334Z,11.60
2018-05-18T23:02:22.688Z,11.60
2018-05-18T23:05:26.083Z,11.60
2018-05-18T23:08:29.421Z,11.60
2018-05-18T23:11:32.761Z,11.60
2018-05-18T23:14:36.116Z,11.50
2018-05-18T23:17:39.443Z,11.50
2018-05-18T23:20:42.829Z,11.50
2018-05-18T23:23:46.239Z,11.50
2018-05-18T23:26:49.643Z,11.40
2018-05-18T23:29:53.053Z,11.40
2018-05-18T23:32:56.395Z,11.40
2018-05-18T23:35:59.693Z,11.40
2018-05-18T23:39:03.067Z,11.40
2018-05-18T23:42:07.212Z,11.40
2018-05-18T23:45:10.650Z,11.40
2018-05-18T23:48:14.805Z,11.30
2018-05-18T23:51:18.142Z,11.30
2018-05-18T23:54:21.504Z,11.30
2018-05-18T23:57:24.862Z,11.20
